createdAt,value
2023-02-08T00:00:15.034Z,9.50
2023-02-08T00:01:22.565Z,8.02
2023-02-08T00:02:24.440Z,8.90
2023-02-08T00:03:26.369Z,10.35
2023-02-08T00:04:28.131Z,9.93
2023-02-08T00:05:29.790Z,9.20
2023-02-08T00:06:31.677Z,8.40
2023-02-08T00:07:33.532Z,8.00
2023-02-08T00:08:36.356Z,9.15
2023-02-08T00:09:38.071Z,8.80
2023-02-08T00:10:40.193Z,8.98
2023-02-08T00:11:42.160Z,8.13
2023-02-08T00:12:43.950Z,8.27
2023-02-08T00:13:45.821Z,8.85
2023-02-08T00:14:47.632Z,8.35
2023-02-08T00:15:52.095Z,9.55
2023-02-08T00:16:53.842Z,8.90
2023-02-08T00:17:55.709Z,8.82
2023-02-08T00:18:57.461Z,10.27
2023-02-08T00:19:59.308Z,9.73
2023-02-08T00:21:01.066Z,10.25
2023-02-08T00:22:02.826Z,11.25
2023-02-08T00:23:04.668Z,8.70
2023-02-08T00:24:06.805Z,8.57
2023-02-08T00:25:09.325Z,8.80
2023-02-08T00:26:11.085Z,10.13
2023-02-08T00:27:12.859Z,9.43
2023-02-08T00:28:16.665Z,9.27
2023-02-08T00:29:18.406Z,8.23
2023-02-08T00:30:20.368Z,9.00
2023-02-08T00:31:22.208Z,7.90
2023-02-08T00:32:24.599Z,8.70
2023-02-08T00:33:26.368Z,7.85
2023-02-08T00:34:28.217Z,7.85
2023-02-08T00:35:30.428Z,8.02
2023-02-08T00:36:32.159Z,6.95
2023-02-08T00:37:34.157Z,7.65
2023-02-08T00:38:36.285Z,7.28
2023-02-08T00:39:38.103Z,7.40
2023-02-08T00:40:40.235Z,6.40
2023-02-08T00:41:42.201Z,6.13
2023-02-08T00:42:44.230Z,8.65
2023-02-08T00:43:46.120Z,7.80
2023-02-08T00:44:47.808Z,6.70
2023-02-08T00:45:54.998Z,7.32
2023-02-08T00:46:56.852Z,8.07
2023-02-08T00:47:58.479Z,7.93
2023-02-08T00:49:00.245Z,7.63
2023-02-08T00:50:02.187Z,5.82
2023-02-08T00:51:10.628Z,7.73
2023-02-08T00:52:12.345Z,8.65
2023-02-08T00:53:13.976Z,8.85
2023-02-08T00:54:17.986Z,8.90
2023-02-08T00:55:19.747Z,6.40
2023-02-08T00:56:21.522Z,10.70
2023-02-08T00:57:23.465Z,7.20
2023-02-08T00:58:25.190Z,7.22
2023-02-08T00:59:27.032Z,8.18
2023-02-08T01:00:28.773Z,8.10
2023-02-08T01:01:30.594Z,7.67
2023-02-08T01:02:32.423Z,7.85
2023-02-08T01:03:39.055Z,7.57
2023-02-08T01:04:40.890Z,7.45
2023-02-08T01:05:42.628Z,9.07
2023-02-08T01:06:44.346Z,9.27
2023-02-08T01:07:46.182Z,6.65
2023-02-08T01:08:48.655Z,8.20
2023-02-08T01:09:50.476Z,6.85
2023-02-08T01:10:52.187Z,7.43
2023-02-08T01:11:53.913Z,6.20
2023-02-08T01:12:55.824Z,5.85
2023-02-08T01:13:57.968Z,7.15
2023-02-08T01:14:59.711Z,6.55
2023-02-08T01:16:12.399Z,5.93
2023-02-08T01:17:14.168Z,5.57
2023-02-08T01:18:15.975Z,5.18
2023-02-08T01:19:18.049Z,6.22
2023-02-08T01:20:19.912Z,5.95
2023-02-08T01:21:26.025Z,6.50
2023-02-08T01:22:29.395Z,5.87
2023-02-08T01:23:31.121Z,7.68
2023-02-08T01:24:33.095Z,6.78
2023-02-08T01:25:35.010Z,7.15
2023-02-08T01:26:37.314Z,6.45
2023-02-08T01:27:39.101Z,6.40
2023-02-08T01:28:41.661Z,6.28
2023-02-08T01:29:43.392Z,6.35
2023-02-08T01:30:45.122Z,6.25
2023-02-08T01:31:47.167Z,6.47
2023-02-08T01:32:48.928Z,5.70
2023-02-08T01:33:50.919Z,4.88
2023-02-08T01:34:52.630Z,6.40
2023-02-08T01:35:54.324Z,5.43
2023-02-08T01:36:56.538Z,6.28
2023-02-08T01:37:58.434Z,5.30
2023-02-08T01:39:01.150Z,5.95
2023-02-08T01:40:02.868Z,5.55
2023-02-08T01:41:06.793Z,6.68
2023-02-08T01:42:13.556Z,6.90
2023-02-08T01:43:23.603Z,6.43
2023-02-08T01:45:02.891Z,5.55
2023-02-08T01:46:04.866Z,5.22
2023-02-08T01:47:06.752Z,5.43
2023-02-08T01:48:13.782Z,6.35
2023-02-08T01:49:20.552Z,7.05
2023-02-08T01:50:26.887Z,5.80
2023-02-08T01:51:33.551Z,6.05
2023-02-08T01:52:35.421Z,6.57
2023-02-08T01:53:38.090Z,6.82
2023-02-08T01:54:58.792Z,5.73
2023-02-08T01:56:06.801Z,6.50
2023-02-08T01:57:09.319Z,5.88
2023-02-08T01:58:12.860Z,6.40
2023-02-08T01:59:24.345Z,6.38
2023-02-08T02:00:26.274Z,4.95
2023-02-08T02:03:25.307Z,6.05
2023-02-08T02:04:27.625Z,5.90
2023-02-08T02:05:35.538Z,5.40
2023-02-08T02:06:43.604Z,5.57
2023-02-08T02:07:45.744Z,5.93
2023-02-08T02:09:08.021Z,4.70
2023-02-08T02:10:15.717Z,5.22
2023-02-08T02:11:18.166Z,4.22
2023-02-08T02:12:21.174Z,4.15
2023-02-08T02:13:26.809Z,4.18
2023-02-08T02:14:29.222Z,5.82
2023-02-08T02:15:30.985Z,5.95
2023-02-08T02:16:32.790Z,5.70
2023-02-08T02:17:36.303Z,4.87
2023-02-08T02:18:38.339Z,5.78
2023-02-08T02:19:48.895Z,12.15
2023-02-08T02:21:11.816Z,7.88
2023-02-08T02:22:58.354Z,6.15
2023-02-08T02:24:33.981Z,4.10
2023-02-08T02:25:56.635Z,4.50
2023-02-08T02:27:04.039Z,5.72
2023-02-08T02:28:18.961Z,5.60
2023-02-08T02:30:06.610Z,5.25
2023-02-08T02:31:42.859Z,4.73
2023-02-08T02:32:58.460Z,4.53
2023-02-08T02:34:10.316Z,4.75
2023-02-08T02:35:56.671Z,4.50
2023-02-08T02:37:42.550Z,5.60
2023-02-08T02:39:16.245Z,4.70
2023-02-08T02:40:53.702Z,5.03
2023-02-08T02:42:21.385Z,5.63
2023-02-08T02:43:32.786Z,3.92
2023-02-08T02:44:34.530Z,4.20
2023-02-08T02:46:13.712Z,4.60
2023-02-08T02:47:27.212Z,4.90
2023-02-08T02:49:10.916Z,4.60
2023-02-08T02:50:21.154Z,3.47
2023-02-08T02:51:42.973Z,3.90
2023-02-08T02:52:58.268Z,3.85
2023-02-08T02:54:19.301Z,5.82
2023-02-08T02:55:25.253Z,4.53
2023-02-08T02:56:36.453Z,4.60
2023-02-08T02:57:40.054Z,6.35
2023-02-08T02:58:43.652Z,5.30
2023-02-08T02:59:45.754Z,4.85
2023-02-08T03:00:54.090Z,4.75
2023-02-08T03:01:55.851Z,4.28
2023-02-08T03:02:57.536Z,4.25
2023-02-08T03:03:59.712Z,5.07
2023-02-08T03:05:01.585Z,4.72
2023-02-08T03:06:12.417Z,5.30
2023-02-08T03:07:14.124Z,4.97
2023-02-08T03:08:25.153Z,5.03
2023-02-08T03:09:54.612Z,4.03
2023-02-08T03:11:21.535Z,4.38
2023-02-08T03:12:50.978Z,4.47
2023-02-08T03:14:57.207Z,5.15
2023-02-08T03:16:17.322Z,5.10
2023-02-08T03:17:38.568Z,5.60
2023-02-08T03:19:14.197Z,3.85
2023-02-08T03:20:26.907Z,4.03
2023-02-08T03:21:44.689Z,5.65
2023-02-08T03:23:08.537Z,5.22
2023-02-08T03:24:12.805Z,4.73
2023-02-08T03:25:23.526Z,4.93
2023-02-08T03:26:49.032Z,5.03
2023-02-08T03:28:01.821Z,5.00
2023-02-08T03:29:16.892Z,5.13
2023-02-08T03:30:30.387Z,5.57
2023-02-08T03:31:56.309Z,5.82
2023-02-08T03:33:07.058Z,5.97
2023-02-08T03:34:22.678Z,6.40
2023-02-08T03:35:53.515Z,5.65
2023-02-08T03:37:05.630Z,5.73
2023-02-08T03:38:17.173Z,5.15
2023-02-08T03:39:25.286Z,6.05
2023-02-08T03:40:45.305Z,5.97
2023-02-08T03:41:50.119Z,5.90
2023-02-08T03:42:56.809Z,6.55
2023-02-08T03:44:03.920Z,5.38
2023-02-08T03:45:17.742Z,5.65
2023-02-08T03:46:29.120Z,5.30
2023-02-08T03:47:37.644Z,6.50
2023-02-08T03:48:43.604Z,6.00
2023-02-08T03:49:49.049Z,6.50
2023-02-08T03:50:54.907Z,6.15
2023-02-08T03:52:01.222Z,7.20
2023-02-08T03:53:04.235Z,5.70
2023-02-08T03:54:11.107Z,5.93
2023-02-08T03:55:17.942Z,7.10
2023-02-08T03:56:48.688Z,6.65
2023-02-08T03:58:13.726Z,6.97
2023-02-08T03:59:25.039Z,5.43
2023-02-08T04:00:31.020Z,5.20
2023-02-08T04:01:55.426Z,6.15
2023-02-08T04:03:02.746Z,6.10
2023-02-08T04:04:04.885Z,6.15
2023-02-08T04:05:07.893Z,6.68
2023-02-08T04:06:09.880Z,6.68
2023-02-08T04:07:11.772Z,6.28
2023-02-08T04:08:13.649Z,6.88
2023-02-08T04:09:15.376Z,6.20
2023-02-08T04:10:17.137Z,6.93
2023-02-08T04:11:18.904Z,6.43
2023-02-08T04:12:20.676Z,6.93
2023-02-08T04:13:22.376Z,6.07
2023-02-08T04:14:24.181Z,7.25
2023-02-08T04:15:25.969Z,7.00
2023-02-08T04:16:27.762Z,6.80
2023-02-08T04:17:29.469Z,6.32
2023-02-08T04:18:31.169Z,7.28
2023-02-08T04:19:33.085Z,6.57
2023-02-08T04:20:34.818Z,6.15
2023-02-08T04:21:36.659Z,8.03
2023-02-08T04:22:38.392Z,6.93
2023-02-08T04:23:40.057Z,6.93
2023-02-08T04:24:41.783Z,6.63
2023-02-08T04:25:43.818Z,6.28
2023-02-08T04:26:45.464Z,7.32
2023-02-08T04:27:47.384Z,6.72
2023-02-08T04:28:49.047Z,6.40
2023-02-08T04:29:50.890Z,6.22
2023-02-08T04:30:55.441Z,6.40
2023-02-08T04:31:57.494Z,6.97
2023-02-08T04:32:59.259Z,6.10
2023-02-08T04:34:01.016Z,6.47
2023-02-08T04:35:02.937Z,7.75
2023-02-08T04:36:04.912Z,6.80
2023-02-08T04:37:08.210Z,5.85
2023-02-08T04:38:09.970Z,5.78
2023-02-08T04:39:11.727Z,6.30
2023-02-08T04:40:13.514Z,6.63
2023-02-08T04:41:15.356Z,6.25
2023-02-08T04:42:17.134Z,6.43
2023-02-08T04:43:18.855Z,5.90
2023-02-08T04:44:20.507Z,6.68
2023-02-08T04:45:22.191Z,6.88
2023-02-08T04:46:24.143Z,6.20
2023-02-08T04:47:26.024Z,7.22
2023-02-08T04:48:27.817Z,6.15
2023-02-08T04:49:29.560Z,6.63
2023-02-08T04:50:31.376Z,7.13
2023-02-08T04:51:33.078Z,7.32
2023-02-08T04:52:34.844Z,6.57
2023-02-08T04:53:36.646Z,6.68
2023-02-08T04:54:40.597Z,6.18
2023-02-08T04:55:42.619Z,7.47
2023-02-08T04:56:44.347Z,7.55
2023-02-08T04:57:46.111Z,7.18
2023-02-08T04:58:47.864Z,5.93
2023-02-08T04:59:49.658Z,7.45
2023-02-08T05:00:51.460Z,7.07
2023-02-08T05:01:53.224Z,6.60
2023-02-08T05:02:56.329Z,5.97
2023-02-08T05:03:58.099Z,7.03
2023-02-08T05:04:59.810Z,6.85
2023-02-08T05:06:02.089Z,6.13
2023-02-08T05:07:04.170Z,6.95
2023-02-08T05:08:05.995Z,6.75
2023-02-08T05:09:09.369Z,7.03
2023-02-08T05:10:11.018Z,6.75
2023-02-08T05:11:12.952Z,6.20
2023-02-08T05:12:14.732Z,6.38
2023-02-08T05:13:16.566Z,12.43
2023-02-08T05:14:18.412Z,7.55
2023-02-08T05:15:20.213Z,16.30
2023-02-08T05:16:22.486Z,10.02
2023-02-08T05:17:24.174Z,8.30
2023-02-08T05:18:26.257Z,6.88
2023-02-08T05:19:27.984Z,7.85
2023-02-08T05:20:29.663Z,8.98
2023-02-08T05:21:31.568Z,10.25
2023-02-08T05:22:33.707Z,9.35
2023-02-08T05:23:36.506Z,10.07
2023-02-08T05:24:38.166Z,6.82
2023-02-08T05:25:39.925Z,6.53
2023-02-08T05:26:41.841Z,8.10
2023-02-08T05:27:43.748Z,14.90
2023-02-08T05:28:45.530Z,17.30
2023-02-08T05:29:47.266Z,10.10
2023-02-08T05:30:49.824Z,8.98
2023-02-08T05:31:51.648Z,11.73
2023-02-08T05:32:53.336Z,8.18
2023-02-08T05:33:55.031Z,7.97
2023-02-08T05:34:56.818Z,9.75
2023-02-08T05:35:58.581Z,8.00
2023-02-08T05:37:00.408Z,7.45
2023-02-08T05:38:02.074Z,8.98
2023-02-08T05:39:04.686Z,6.30
2023-02-08T05:40:06.847Z,8.13
2023-02-08T05:41:09.031Z,7.75
2023-02-08T05:42:10.818Z,11.50
2023-02-08T05:43:12.490Z,45.58
2023-02-08T05:44:14.160Z,37.80
2023-02-08T05:45:16.117Z,39.25
2023-02-08T05:46:18.114Z,31.23
2023-02-08T05:47:20.051Z,25.75
2023-02-08T05:48:21.836Z,11.77
2023-02-08T05:49:23.588Z,9.48
2023-02-08T05:50:25.338Z,6.65
2023-02-08T05:51:26.985Z,6.47
2023-02-08T05:52:28.733Z,6.60
2023-02-08T05:53:31.330Z,5.43
2023-02-08T05:54:33.034Z,7.23
2023-02-08T05:55:34.765Z,5.75
2023-02-08T05:56:36.521Z,6.30
2023-02-08T05:57:38.298Z,6.55
2023-02-08T05:58:40.216Z,7.13
2023-02-08T05:59:41.868Z,8.05
2023-02-08T06:00:43.874Z,5.97
2023-02-08T06:01:45.566Z,6.40
2023-02-08T06:02:47.479Z,5.80
2023-02-08T06:03:49.368Z,7.22
2023-02-08T06:04:51.382Z,6.20
2023-02-08T06:05:53.300Z,5.55
2023-02-08T06:06:54.997Z,6.20
2023-02-08T06:07:56.791Z,6.88
2023-02-08T06:08:58.544Z,5.82
2023-02-08T06:10:00.310Z,5.50
2023-02-08T06:11:02.309Z,6.07
2023-02-08T06:12:04.444Z,6.30
2023-02-08T06:13:06.369Z,6.82
2023-02-08T06:14:08.120Z,6.28
2023-02-08T06:15:10.362Z,5.50
2023-02-08T06:16:13.443Z,6.32
2023-02-08T06:17:15.168Z,6.03
2023-02-08T06:18:17.121Z,6.25
2023-02-08T06:19:19.042Z,7.00
2023-02-08T06:20:20.886Z,6.00
2023-02-08T06:21:24.471Z,5.90
2023-02-08T06:22:27.758Z,6.88
2023-02-08T06:23:29.608Z,6.15
2023-02-08T06:24:31.458Z,5.72
2023-02-08T06:25:33.490Z,6.40
2023-02-08T06:26:36.183Z,6.47
2023-02-08T06:27:37.920Z,7.05
2023-02-08T06:28:39.760Z,6.18
2023-02-08T06:29:41.481Z,6.13
2023-02-08T06:30:44.668Z,5.35
2023-02-08T06:31:46.445Z,7.38
2023-02-08T06:32:48.216Z,6.32
2023-02-08T06:33:49.904Z,7.75
2023-02-08T06:34:51.594Z,7.07
2023-02-08T06:35:53.871Z,8.10
2023-02-08T06:36:55.554Z,6.90
2023-02-08T06:37:57.312Z,7.45
2023-02-08T06:38:59.046Z,8.25
2023-02-08T06:40:00.841Z,7.85
2023-02-08T06:41:02.481Z,7.40
2023-02-08T06:42:04.650Z,7.18
2023-02-08T06:43:06.734Z,6.68
2023-02-08T06:44:08.409Z,7.05
2023-02-08T06:45:12.633Z,7.20
2023-02-08T06:46:15.299Z,7.00
2023-02-08T06:47:17.149Z,6.88
2023-02-08T06:48:18.928Z,7.57
2023-02-08T06:49:20.659Z,8.13
2023-02-08T06:50:24.136Z,7.43
2023-02-08T06:51:26.747Z,7.35
2023-02-08T06:52:28.473Z,7.53
2023-02-08T06:53:30.516Z,6.43
2023-02-08T06:54:32.187Z,7.75
2023-02-08T06:55:34.056Z,7.70
2023-02-08T06:56:35.793Z,7.90
2023-02-08T06:57:37.426Z,7.53
2023-02-08T06:58:39.225Z,6.03
2023-02-08T06:59:42.238Z,6.50
2023-02-08T07:00:44.075Z,7.20
2023-02-08T07:01:45.814Z,7.18
2023-02-08T07:02:47.549Z,5.95
2023-02-08T07:03:49.204Z,7.72
2023-02-08T07:04:50.923Z,7.50
2023-02-08T07:06:04.602Z,7.00
2023-02-08T07:07:07.265Z,5.93
2023-02-08T07:08:09.555Z,6.22
2023-02-08T07:09:11.406Z,6.55
2023-02-08T07:10:13.117Z,7.13
2023-02-08T07:11:17.571Z,6.88
2023-02-08T07:12:19.343Z,7.40
2023-02-08T07:13:21.055Z,7.45
2023-02-08T07:14:22.764Z,6.18
2023-02-08T07:15:24.461Z,7.63
2023-02-08T07:16:26.267Z,7.95
2023-02-08T07:17:28.490Z,8.57
2023-02-08T07:18:30.230Z,7.30
2023-02-08T07:19:32.118Z,8.63
2023-02-08T07:20:33.817Z,8.02
2023-02-08T07:21:35.525Z,7.55
2023-02-08T07:22:38.041Z,8.23
2023-02-08T07:23:40.481Z,7.93
2023-02-08T07:24:42.571Z,8.50
2023-02-08T07:25:44.266Z,9.23
2023-02-08T07:26:46.079Z,7.93
2023-02-08T07:27:47.965Z,12.23
2023-02-08T07:28:49.758Z,9.07
2023-02-08T07:29:51.459Z,6.65
2023-02-08T07:30:53.797Z,6.75
2023-02-08T07:31:55.549Z,11.35
2023-02-08T07:32:57.388Z,9.07
2023-02-08T07:33:59.653Z,9.05
2023-02-08T07:35:01.418Z,8.60
2023-02-08T07:36:03.834Z,9.93
2023-02-08T07:37:05.573Z,9.85
2023-02-08T07:38:07.314Z,8.33
2023-02-08T07:39:09.059Z,6.90
2023-02-08T07:40:11.547Z,8.40
2023-02-08T07:41:15.696Z,7.30
2023-02-08T07:42:17.691Z,7.32
2023-02-08T07:43:19.359Z,6.45
2023-02-08T07:44:21.150Z,7.97
2023-02-08T07:45:22.875Z,8.18
2023-02-08T07:46:24.647Z,7.10
2023-02-08T07:47:26.318Z,7.43
2023-02-08T07:48:28.017Z,6.37
2023-02-08T07:49:29.948Z,7.70
2023-02-08T07:50:32.475Z,6.82
2023-02-08T07:51:34.229Z,6.43
2023-02-08T07:52:35.878Z,7.20
2023-02-08T07:53:42.871Z,7.72
2023-02-08T07:54:56.603Z,8.05
2023-02-08T07:55:58.995Z,7.93
2023-02-08T07:57:03.168Z,7.28
2023-02-08T07:58:05.485Z,8.13
2023-02-08T07:59:07.276Z,12.77
2023-02-08T08:00:09.963Z,10.57
2023-02-08T08:01:22.063Z,8.38
2023-02-08T08:02:26.716Z,9.23
2023-02-08T08:03:28.496Z,8.68
2023-02-08T08:04:30.241Z,9.13
2023-02-08T08:05:32.083Z,8.63
2023-02-08T08:06:33.761Z,8.27
2023-02-08T08:07:35.730Z,9.18
2023-02-08T08:08:37.671Z,8.98
2023-02-08T08:09:39.384Z,8.43
2023-02-08T08:10:41.684Z,7.68
2023-02-08T08:11:43.652Z,7.95
2023-02-08T08:12:45.396Z,7.40
2023-02-08T08:13:47.346Z,7.25
2023-02-08T08:14:49.121Z,7.93
2023-02-08T08:15:50.841Z,8.02
2023-02-08T08:16:52.493Z,8.63
2023-02-08T08:17:54.223Z,8.55
2023-02-08T08:18:55.896Z,6.70
2023-02-08T08:19:57.600Z,7.37
2023-02-08T08:20:59.398Z,7.47
2023-02-08T08:22:01.263Z,6.88
2023-02-08T08:23:02.931Z,6.43
2023-02-08T08:24:04.628Z,6.38
2023-02-08T08:25:06.807Z,6.10
2023-02-08T08:26:10.297Z,6.82
2023-02-08T08:27:12.084Z,6.28
2023-02-08T08:28:14.073Z,7.53
2023-02-08T08:29:15.881Z,7.20
2023-02-08T08:30:17.920Z,8.67
2023-02-08T08:31:21.916Z,7.53
2023-02-08T08:32:23.745Z,7.00
2023-02-08T08:33:25.479Z,7.97
2023-02-08T08:34:27.327Z,7.32
2023-02-08T08:35:29.080Z,7.43
2023-02-08T08:36:31.225Z,7.15
2023-02-08T08:37:33.430Z,6.95
2023-02-08T08:38:35.419Z,7.18
2023-02-08T08:39:37.293Z,14.52
2023-02-08T08:40:39.627Z,8.70
2023-02-08T08:41:41.475Z,7.55
2023-02-08T08:42:43.165Z,8.18
2023-02-08T08:43:45.111Z,9.15
2023-02-08T08:44:47.674Z,7.57
2023-02-08T08:45:50.604Z,6.72
2023-02-08T08:47:00.797Z,6.28
2023-02-08T08:48:04.232Z,6.72
2023-02-08T08:49:06.055Z,7.20
2023-02-08T08:50:08.037Z,8.25
2023-02-08T08:51:09.746Z,7.60
2023-02-08T08:52:12.678Z,6.80
2023-02-08T08:53:14.431Z,7.20
2023-02-08T08:54:16.177Z,8.35
2023-02-08T08:55:17.906Z,7.80
2023-02-08T08:56:19.671Z,7.40
2023-02-08T08:57:21.513Z,6.53
2023-02-08T08:58:23.393Z,7.70
2023-02-08T08:59:25.082Z,7.45
2023-02-08T09:00:26.764Z,7.28
2023-02-08T09:01:28.621Z,8.53
2023-02-08T09:02:30.394Z,7.38
2023-02-08T09:03:32.536Z,7.68
2023-02-08T09:04:34.438Z,7.68
2023-02-08T09:05:36.163Z,7.05
2023-02-08T09:06:37.890Z,7.32
2023-02-08T09:07:39.580Z,7.55
2023-02-08T09:08:41.695Z,8.10
2023-02-08T09:09:43.385Z,8.00
2023-02-08T09:10:45.356Z,10.38
2023-02-08T09:11:48.164Z,9.17
2023-02-08T09:12:49.905Z,8.45
2023-02-08T09:13:51.717Z,11.13
2023-02-08T09:14:53.439Z,6.40
2023-02-08T09:15:55.212Z,7.20
2023-02-08T09:16:56.966Z,7.00
2023-02-08T09:17:58.711Z,6.88
2023-02-08T09:19:01.840Z,7.60
2023-02-08T09:20:04.831Z,7.72
2023-02-08T09:21:12.193Z,7.50
2023-02-08T09:22:14.135Z,8.27
2023-02-08T09:23:15.811Z,8.20
2023-02-08T09:24:17.578Z,6.70
2023-02-08T09:25:19.330Z,7.05
2023-02-08T09:26:21.331Z,6.45
2023-02-08T09:27:23.165Z,6.32
2023-02-08T09:28:24.853Z,7.60
2023-02-08T09:29:26.802Z,7.22
2023-02-08T09:30:28.523Z,8.93
2023-02-08T09:31:33.112Z,8.63
2023-02-08T09:32:34.997Z,7.47
2023-02-08T09:33:36.738Z,6.95
2023-02-08T09:34:38.549Z,8.15
2023-02-08T09:35:40.546Z,5.55
2023-02-08T09:36:42.450Z,5.40
2023-02-08T09:37:44.457Z,6.05
2023-02-08T09:38:46.329Z,5.43
2023-02-08T09:39:48.133Z,4.75
2023-02-08T09:41:02.016Z,5.43
2023-02-08T09:42:42.334Z,4.63
2023-02-08T09:44:09.172Z,5.50
2023-02-08T09:45:22.751Z,5.50
2023-02-08T09:46:30.758Z,5.50
2023-02-08T09:47:39.750Z,5.30
2023-02-08T09:48:41.597Z,6.43
2023-02-08T09:49:57.496Z,5.75
2023-02-08T09:51:06.064Z,5.18
2023-02-08T09:52:16.145Z,5.45
2023-02-08T09:53:27.423Z,5.43
2023-02-08T09:54:42.781Z,5.80
2023-02-08T09:55:49.825Z,4.57
2023-02-08T09:56:52.981Z,6.35
2023-02-08T09:57:58.153Z,5.82
2023-02-08T09:59:01.951Z,5.63
2023-02-08T10:00:31.860Z,5.45
2023-02-08T10:01:37.025Z,6.25
2023-02-08T10:02:41.320Z,6.07
2023-02-08T10:03:44.950Z,5.75
2023-02-08T10:05:04.888Z,5.60
2023-02-08T10:06:10.001Z,5.22
2023-02-08T10:07:11.799Z,5.97
2023-02-08T10:08:13.660Z,3.80
2023-02-08T10:09:20.763Z,5.28
2023-02-08T10:10:28.264Z,5.05
2023-02-08T10:11:36.041Z,4.85
2023-02-08T10:13:02.481Z,5.25
2023-02-08T10:14:04.150Z,4.78
2023-02-08T11:00:59.597Z,7.60
2023-02-08T11:02:04.569Z,5.30
2023-02-08T11:05:10.752Z,6.25
2023-02-08T11:06:32.978Z,6.80
2023-02-08T11:07:38.858Z,4.53
2023-02-08T11:08:55.724Z,5.45
2023-02-08T11:10:22.137Z,5.85
2023-02-08T11:11:27.282Z,5.65
2023-02-08T11:12:31.778Z,5.07
2023-02-08T11:13:38.495Z,5.45
2023-02-08T11:14:58.386Z,6.05
2023-02-08T11:16:10.775Z,6.30
2023-02-08T11:17:33.226Z,5.60
2023-02-08T11:18:41.121Z,3.83
2023-02-08T11:19:43.399Z,4.03
2023-02-08T11:20:49.521Z,4.03
2023-02-08T11:21:54.588Z,5.15
2023-02-08T11:22:56.606Z,6.22
2023-02-08T11:24:03.596Z,6.57
2023-02-08T11:25:10.405Z,4.05
2023-02-08T11:26:36.650Z,4.93
2023-02-08T11:27:39.757Z,4.95
2023-02-08T11:28:45.829Z,5.55
2023-02-08T11:29:53.797Z,6.80
2023-02-08T11:31:15.919Z,6.47
2023-02-08T11:32:23.954Z,4.00
2023-02-08T11:33:26.353Z,5.90
2023-02-08T11:34:39.024Z,7.50
2023-02-08T11:35:48.037Z,5.40
2023-02-08T11:36:50.141Z,6.68
2023-02-08T11:38:01.148Z,5.07
2023-02-08T11:39:29.327Z,6.03
2023-02-08T11:40:47.259Z,5.57
2023-02-08T11:41:52.525Z,5.30
2023-02-08T11:42:58.478Z,6.53
2023-02-08T11:44:05.065Z,6.10
2023-02-08T11:45:10.780Z,5.53
2023-02-08T11:46:17.725Z,6.25
2023-02-08T11:47:25.823Z,5.38
2023-02-08T11:48:44.804Z,5.25
2023-02-08T11:49:53.709Z,4.75
2023-02-08T11:51:02.593Z,5.13
2023-02-08T11:52:06.637Z,5.25
2023-02-08T11:53:20.916Z,5.67
2023-02-08T11:54:36.458Z,5.43
2023-02-08T11:55:38.231Z,5.80
2023-02-08T11:56:40.111Z,6.38
2023-02-08T11:58:03.309Z,5.53
2023-02-08T11:59:10.637Z,4.60
2023-02-08T12:00:31.109Z,6.10
2023-02-08T12:01:36.081Z,4.47
2023-02-08T12:02:40.270Z,5.57
2023-02-08T12:03:42.375Z,4.90
2023-02-08T12:04:44.066Z,4.53
2023-02-08T12:06:20.520Z,3.88
2023-02-08T12:08:04.094Z,5.22
2023-02-08T12:09:11.768Z,4.55
2023-02-08T12:10:24.567Z,5.20
2023-02-08T12:11:39.304Z,5.13
2023-02-08T12:13:18.282Z,4.63
2023-02-08T12:14:52.689Z,4.32
2023-02-08T12:16:17.002Z,4.57
2023-02-08T12:17:54.059Z,3.90
2023-02-08T12:19:27.924Z,5.00
2023-02-08T12:20:48.432Z,4.28
2023-02-08T12:22:11.101Z,4.55
2023-02-08T12:23:39.365Z,3.65
2023-02-08T12:24:46.955Z,4.25
2023-02-08T12:26:09.594Z,4.38
2023-02-08T12:27:31.386Z,4.00
2023-02-08T12:28:58.856Z,4.60
2023-02-08T12:30:27.482Z,3.95
2023-02-08T12:31:45.325Z,3.47
2023-02-08T12:32:52.893Z,3.27
2023-02-08T12:34:27.775Z,4.30
2023-02-08T12:36:01.384Z,3.55
2023-02-08T12:37:05.100Z,4.38
2023-02-08T12:38:13.395Z,4.00
2023-02-08T12:39:41.257Z,3.53
2023-02-08T12:41:03.112Z,3.78
2023-02-08T12:42:10.483Z,3.55
2023-02-08T12:43:30.339Z,3.72
2023-02-08T12:44:43.667Z,4.22
2023-02-08T12:46:12.990Z,4.40
2023-02-08T12:47:39.617Z,4.25
2023-02-08T12:48:43.935Z,3.45
2023-02-08T12:49:56.762Z,4.07
2023-02-08T12:51:12.199Z,4.97
2023-02-08T12:52:31.402Z,4.18
2023-02-08T12:53:59.418Z,3.90
2023-02-08T12:55:16.035Z,3.75
2023-02-08T12:56:23.665Z,4.32
2023-02-08T12:57:30.154Z,4.60
2023-02-08T12:58:45.017Z,5.00
2023-02-08T13:00:18.844Z,3.85
2023-02-08T13:01:31.258Z,4.00
2023-02-08T13:02:46.352Z,4.25
2023-02-08T13:04:08.290Z,3.97
2023-02-08T13:05:17.756Z,3.28
2023-02-08T13:06:25.767Z,4.10
2023-02-08T13:07:42.453Z,4.05
2023-02-08T13:09:08.753Z,4.25
2023-02-08T13:10:34.165Z,3.63
2023-02-08T13:11:50.085Z,4.27
2023-02-08T13:12:55.189Z,4.28
2023-02-08T13:14:25.801Z,4.63
2023-02-08T13:16:07.994Z,3.25
2023-02-08T13:17:39.671Z,4.30
2023-02-08T13:18:50.749Z,3.45
2023-02-08T13:20:19.253Z,3.78
2023-02-08T13:21:28.395Z,3.35
2023-02-08T13:22:42.014Z,4.53
2023-02-08T13:23:52.874Z,3.13
2023-02-08T13:25:10.336Z,4.57
2023-02-08T13:26:28.046Z,3.25
2023-02-08T13:27:29.770Z,4.28
2023-02-08T13:28:31.865Z,3.15
2023-02-08T13:29:35.833Z,4.00
2023-02-08T13:30:40.389Z,4.15
2023-02-08T13:31:48.510Z,3.70
2023-02-08T13:32:51.697Z,3.53
2023-02-08T13:34:05.346Z,4.05
2023-02-08T13:35:17.066Z,4.07
2023-02-08T13:36:32.986Z,4.47
2023-02-08T13:37:36.155Z,5.10
2023-02-08T13:38:38.217Z,5.50
2023-02-08T13:39:43.147Z,5.38
2023-02-08T13:40:45.764Z,4.55
2023-02-08T13:41:56.816Z,4.32
2023-02-08T13:43:05.138Z,4.03
2023-02-08T13:44:20.887Z,4.63
2023-02-08T13:45:44.270Z,4.22
2023-02-08T13:46:49.128Z,3.38
2023-02-08T13:48:02.370Z,4.03
2023-02-08T13:49:04.733Z,4.05
2023-02-08T13:50:35.385Z,4.43
2023-02-08T13:51:37.253Z,3.83
2023-02-08T13:52:48.266Z,4.32
2023-02-08T13:53:56.317Z,4.13
2023-02-08T13:55:28.854Z,5.05
2023-02-08T13:56:48.907Z,4.50
2023-02-08T13:57:53.536Z,4.45
2023-02-08T13:59:00.775Z,3.70
2023-02-08T14:00:22.597Z,4.43
2023-02-08T14:01:30.154Z,4.57
2023-02-08T14:02:32.149Z,3.97
2023-02-08T14:03:35.409Z,4.70
2023-02-08T14:04:42.817Z,3.70
2023-02-08T14:05:53.669Z,3.10
2023-02-08T14:07:05.354Z,4.05
2023-02-08T14:08:17.236Z,5.07
2023-02-08T14:09:30.974Z,4.45
2023-02-08T14:10:40.773Z,4.13
2023-02-08T14:12:01.427Z,4.20
2023-02-08T14:13:16.019Z,4.20
2023-02-08T14:14:25.683Z,4.10
2023-02-08T14:15:32.338Z,4.97
2023-02-08T14:16:36.940Z,3.63
2023-02-08T14:17:46.657Z,3.88
2023-02-08T14:18:53.280Z,4.30
2023-02-08T14:20:05.294Z,4.35
2023-02-08T14:21:07.803Z,4.93
2023-02-08T14:22:12.429Z,4.78
2023-02-08T14:23:28.440Z,4.17
2023-02-08T14:24:33.123Z,3.95
2023-02-08T14:25:47.311Z,3.28
2023-02-08T14:26:50.907Z,4.47
2023-02-08T14:28:03.640Z,4.60
2023-02-08T14:29:07.108Z,4.22
2023-02-08T14:30:20.785Z,4.45
2023-02-08T14:31:23.225Z,3.75
2023-02-08T14:32:27.508Z,4.53
2023-02-08T14:33:35.828Z,5.07
2023-02-08T14:34:41.668Z,4.40
2023-02-08T14:35:53.664Z,4.72
2023-02-08T14:37:03.876Z,4.72
2023-02-08T14:38:20.655Z,4.57
2023-02-08T14:39:29.004Z,4.45
2023-02-08T14:40:47.460Z,4.28
2023-02-08T14:41:57.301Z,4.32
2023-02-08T14:43:06.144Z,4.18
2023-02-08T14:44:38.742Z,3.80
2023-02-08T14:45:43.321Z,4.63
2023-02-08T14:46:47.280Z,4.70
2023-02-08T14:47:49.008Z,3.90
2023-02-08T14:48:52.434Z,4.20
2023-02-08T14:50:25.154Z,4.68
2023-02-08T14:51:32.278Z,4.38
2023-02-08T14:52:35.517Z,4.43
2023-02-08T14:53:51.168Z,4.78
2023-02-08T14:55:05.061Z,4.45
2023-02-08T14:56:15.824Z,4.35
2023-02-08T14:57:25.723Z,4.22
2023-02-08T14:58:35.690Z,4.30
2023-02-08T14:59:37.839Z,4.45
2023-02-08T15:00:40.229Z,4.03
2023-02-08T15:02:02.443Z,4.43
2023-02-08T15:03:11.387Z,3.78
2023-02-08T15:04:15.923Z,4.25
2023-02-08T15:05:29.912Z,3.85
2023-02-08T15:06:34.567Z,4.28
2023-02-08T15:07:45.265Z,4.15
2023-02-08T15:08:53.644Z,4.57
2023-02-08T15:09:55.866Z,4.77
2023-02-08T15:10:58.270Z,4.13
2023-02-08T15:12:02.051Z,4.68
2023-02-08T15:13:06.662Z,3.30
2023-02-08T15:14:20.489Z,4.10
2023-02-08T15:15:39.753Z,3.80
2023-02-08T15:16:44.281Z,4.30
2023-02-08T15:17:50.502Z,4.07
2023-02-08T15:18:52.854Z,3.47
2023-02-08T15:19:55.768Z,3.25
2023-02-08T15:21:05.574Z,3.83
2023-02-08T15:22:26.536Z,3.80
2023-02-08T15:23:28.728Z,2.90
2023-02-08T15:24:30.511Z,3.97
2023-02-08T15:25:38.773Z,2.80
2023-02-08T15:26:53.118Z,3.30
2023-02-08T15:27:58.437Z,3.70
2023-02-08T15:29:00.795Z,4.43
2023-02-08T15:30:02.918Z,4.45
2023-02-08T15:31:09.383Z,3.70
2023-02-08T15:32:18.318Z,4.30
2023-02-08T15:33:20.092Z,2.83
2023-02-08T15:34:25.148Z,3.90
2023-02-08T15:35:28.961Z,3.47
2023-02-08T15:36:36.651Z,3.33
2023-02-08T15:37:38.592Z,4.20
2023-02-08T15:38:42.915Z,2.83
2023-02-08T15:39:49.145Z,3.63
2023-02-08T15:41:12.511Z,3.95
2023-02-08T15:42:23.122Z,4.40